Sunday, July 22, 2018, 10:23 AM EDT
Back to Local

KFOK, The Gabreski Airport

Location: East Quogue, NY, United States Lat: 40.85
Local Time: 10:23 AM EDT (14:23 GMT) Lon: -72.617
Time Zone: US/Eastern Elev: 65 ft

Show me the last for .
Show Decoded

2018-07-22 09:53 METAR KFOK 221353Z 14010G19KT 6SM BR BKN006 OVC012 24/22 A2999 RMK AO2 SLP154
                 T02390222 $ =
2018-07-22 08:53 METAR KFOK 221253Z 14011G21KT 5SM BR BKN006 OVC010 23/22 A2996 RMK AO2 SLP145
                 T02330217 $ =
2018-07-22 08:07 METAR KFOK 221207Z 14009G17KT 7SM BKN008 OVC012 23/21 A2995 RMK AO2 CIG 007V011
                 T02280211 $ =
2018-07-22 07:53 METAR KFOK 221153Z 14011G18KT 7SM OVC012 23/21 A2995 RMK AO2 SLP141 60064 70089
                 T02280206 10228 20211 53020 $ =
2018-07-22 07:23 METAR KFOK 221123Z 13011G18KT 7SM BKN011 OVC023 22/21 A2994 RMK AO2 T02220206 $
                 =
2018-07-22 06:53 METAR KFOK 221053Z AUTO 13011G18KT 7SM SCT012 BKN022 OVC036 22/21 A2993 RMK AO2
                 RAE0955 SLP133 P0000 T02220206 $ =
2018-07-22 06:46 METAR KFOK 221046Z AUTO 13009G16KT 6SM BR FEW008 BKN022 OVC034 22/21 A2992 RMK
                 AO2 RAE0955 P0000 T02220206 $ =
2018-07-22 06:38 METAR KFOK 221038Z AUTO 13009G15KT 6SM BR BKN011 OVC034 22/21 A2992 RMK AO2
                 RAE0955 P0000 T02220206 $ =
2018-07-22 06:19 METAR KFOK 221019Z AUTO 14009KT 6SM BR FEW005 SCT013 OVC033 22/21 A2991 RMK AO2
                 RAE0955 P0000 T02170206 $ =
2018-07-22 06:09 METAR KFOK 221009Z AUTO 15007G19KT 6SM BR SCT005 BKN022 OVC033 22/21 A2991 RMK
                 AO2 RAE0955 P0000 T02170206 $ =
2018-07-22 05:53 METAR KFOK 220953Z AUTO 13010G19KT 5SM -RA BR BKN005 OVC022 22/21 A2990 RMK AO2
                 SLP124 P0026 T02220211 $ =
2018-07-22 05:37 METAR KFOK 220937Z AUTO 13010G21KT 3SM RA BR OVC005 22/21 A2990 RMK AO2 CIG
                 004V008 P0025 T02220211 $ =
2018-07-22 05:18 METAR KFOK 220918Z AUTO 11012G21KT 2 1/2SM +RA BR BKN005 OVC012 22/21 A2989 RMK
                 AO2 CIG 003V008 P0016 T02220211 $ =
2018-07-22 05:08 METAR KFOK 220908Z AUTO 12010G21KT 3SM RA BR BKN004 OVC010 22/21 A2989 RMK AO2
                 CIG 003V007 P0010 T02220211 $ =
2018-07-22 04:53 METAR KFOK 220853Z AUTO 11010G22KT 2 1/2SM RA BR BKN005 OVC010 22/21 A2989 RMK
                 AO2 CIG 003V008 SLP121 P0021 60038 T02220211 56019 $ =
2018-07-22 04:45 METAR KFOK 220845Z AUTO 12012G22KT 2SM +RA BR BKN005 OVC009 22/21 A2989 RMK AO2
                 P0019 T02220211 $ =
2018-07-22 04:30 METAR KFOK 220830Z AUTO 12012G19KT 3SM -RA BR OVC007 22/21 A2990 RMK AO2 P0010
                 T02220211 $ =
2018-07-22 04:28 METAR KFOK 220828Z AUTO 11010G21KT 2 1/2SM -RA BR BKN004 OVC009 22/21 A2990 RMK
                 AO2 P0009 T02220211 $ =
2018-07-22 03:53 METAR KFOK 220753Z AUTO 09012G23KT 4SM RA BR OVC003 22/21 A2991 RMK AO2 CIG
                 003V006 SLP126 P0009 T02220206 $ =
2018-07-22 02:53 METAR KFOK 220653Z AUTO 10010G19KT 5SM -RA BR OVC003 22/20 A2992 RMK AO2 SLP130
                 P0008 T02170200 $ =
2018-07-22 01:53 METAR KFOK 220553Z AUTO 09012G21KT 5SM -RA BR OVC003 21/20 A2995 RMK AO2 SLP140
                 P0006 60025 T02110200 10211 20200 56019 $ =
2018-07-22 00:53 METAR KFOK 220453Z AUTO 09012KT 6SM -RA BR OVC003 21/19 A2996 RMK AO2 SLP143
                 P0001 T02060194 402330111 $ =
2018-07-21 23:53 METAR KFOK 220353Z AUTO 09013G24KT 5SM -RA BR OVC003 21/19 A2997 RMK AO2 SLP149
                 P0002 T02060194 $ =
2018-07-21 23:29 METAR KFOK 220329Z AUTO 09012G24KT 8SM -RA OVC004 21/19 A2999 RMK AO2 P0001
                 T02060189 $ =
2018-07-21 23:17 METAR KFOK 220317Z AUTO 10013G22KT 8SM -RA OVC005 21/19 A3000 RMK AO2 P0001
                 T02060189 $ =
2018-07-21 23:00 METAR KFOK 220300Z AUTO 08011G23KT 6SM -RA BR OVC004 20/19 A3000 RMK AO2 P0001
                 T02000189 $ =
2018-07-21 22:53 METAR KFOK 220253Z 10012G19KT 2 1/2SM -RA BR OVC004 20/19 A3000 RMK AO2 SLP159
                 P0016 60016 T02000189 58011 $ =
2018-07-21 22:41 METAR KFOK 220241Z 09011G18KT 2SM +RA BR OVC004 20/18 A3001 RMK AO2 P0010
                 T02000183 $ =
2018-07-21 22:28 METAR KFOK 220228Z 09010G17KT 4SM -RA BR OVC004 20/18 A3002 RMK AO2 P0001
                 T02000183 $ =
2018-07-21 21:53 METAR KFOK 220153Z 08013G22KT 10SM -RA OVC008 20/18 A3002 RMK AO2 RAB48 SLP164
                 P0000 T02000178 $ =
2018-07-21 21:38 METAR KFOK 220138Z 09012G19KT 10SM OVC009 21/17 A3002 RMK AO2 T02060172 $ =
2018-07-21 20:53 METAR KFOK 220053Z 09009G20KT 10SM OVC013 20/17 A3003 RMK AO2 SLP167 T02000167 $
                 =
2018-07-21 19:53 METAR KFOK 212353Z 08011KT 10SM FEW012 OVC025 20/17 A3004 RMK AO2 RAB25E34
                 SLP171 P0000 60000 T02000167 10217 20200 58011 $ =
2018-07-21 19:19 METAR KFOK 212319Z 08010G22KT 10SM BKN027 OVC031 20/16 A3004 RMK AO2 T02000161 $
                 =
2018-07-21 18:53 METAR KFOK 212253Z 09009KT 10SM OVC033 20/16 A3005 RMK AO2 SLP175 T02000156 $ =
2018-07-21 17:53 METAR KFOK 212153Z 08012G19KT 10SM SCT050 21/16 A3006 RMK AO2 SLP178 T02060156 $
                 =
2018-07-21 16:53 METAR KFOK 212053Z 10012G21KT 10SM SCT055 21/15 A3007 RMK AO2 SLP182 T02110150
                 56012 $ =
2018-07-21 15:53 METAR KFOK 211953Z 09013G18KT 10SM FEW017 21/15 A3007 RMK AO2 SLP182 T02060150 $
                 =
2018-07-21 14:53 METAR KFOK 211853Z 09010G20KT 10SM SCT018 22/16 A3009 RMK AO2 SLP189 T02170156 $
                 =
2018-07-21 14:33 METAR KFOK 211833Z 10011G21KT 10SM SCT018 21/15 A3009 RMK AO2 T02110150 $ =
2018-07-21 14:01 METAR KFOK 211801Z 10011G19KT 070V130 10SM BKN019 22/16 A3011 RMK AO2 T02170156
                 $ =
2018-07-21 13:53 METAR KFOK 211753Z 10013G19KT 10SM SCT019 22/15 A3010 RMK AO2 SLP194 T02170150
                 10233 20211 58015 $ =
2018-07-21 13:38 METAR KFOK 211738Z 09012G22KT 060V130 10SM BKN019 BKN024 23/16 A3010 RMK AO2
                 T02280156 $ =
2018-07-21 12:53 METAR KFOK 211653Z 09010G20KT 10SM FEW021 23/15 A3013 RMK AO2 SLP201 T02280150 $
                 =
2018-07-21 12:00 METAR KFOK 211600Z 10013G19KT 070V130 10SM SCT026 SCT032 23/14 A3013 RMK AO2
                 T02280144 $ =
2018-07-21 11:53 METAR KFOK 211553Z 09010G17KT 050V120 10SM BKN026 BKN032 22/14 A3014 RMK AO2
                 SLP205 T02220144 $ =
2018-07-21 11:35 METAR KFOK 211535Z 09009KT 10SM BKN026 BKN031 22/14 A3014 RMK AO2 T02220144 $ =
2018-07-21 10:53 METAR KFOK 211453Z 10007G15KT 070V130 10SM CLR 23/13 A3015 RMK AO2 SLP209
                 T02280128 53006 $ =

Support USWX by starting your Amazon purchase here.